createdAt,value
2018-01-14T00:00:34.847Z,0.6
2018-01-14T00:01:42.038Z,0.6
2018-01-14T00:02:49.228Z,0.6
2018-01-14T00:03:56.416Z,0.6
2018-01-14T00:05:03.326Z,0.5
2018-01-14T00:06:10.514Z,0.6
2018-01-14T00:07:17.711Z,0.6
2018-01-14T00:08:24.632Z,0.6
2018-01-14T00:09:31.824Z,0.5
2018-01-14T00:10:39.233Z,0.5
2018-01-14T00:11:46.422Z,0.5
2018-01-14T00:12:53.615Z,0.5
2018-01-14T00:14:00.801Z,0.5
2018-01-14T00:15:07.990Z,0.5
2018-01-14T00:16:15.182Z,0.5
2018-01-14T00:17:22.366Z,0.5
2018-01-14T00:18:29.558Z,0.5
2018-01-14T00:19:36.751Z,0.5
2018-01-14T00:20:43.940Z,0.5
2018-01-14T00:21:50.856Z,0.5
2018-01-14T00:22:58.044Z,0.5
2018-01-14T00:24:05.238Z,0.5
2018-01-14T00:25:12.424Z,0.5
2018-01-14T00:26:19.373Z,0.5
2018-01-14T00:27:26.561Z,0.5
2018-01-14T00:28:33.751Z,0.5
2018-01-14T00:29:40.936Z,0.5
2018-01-14T00:30:48.126Z,0.5
2018-01-14T00:31:55.047Z,0.4
2018-01-14T00:33:01.963Z,0.5
2018-01-14T00:34:09.159Z,0.5
2018-01-14T00:35:16.067Z,0.5
2018-01-14T00:36:23.249Z,0.5
2018-01-14T00:37:30.441Z,0.4
2018-01-14T00:38:37.637Z,0.5
2018-01-14T00:39:44.825Z,0.4
2018-01-14T00:40:52.012Z,0.5
2018-01-14T00:41:59.203Z,0.5
2018-01-14T00:43:06.404Z,0.5
2018-01-14T00:44:13.591Z,0.5
2018-01-14T00:45:20.781Z,0.5
2018-01-14T00:46:27.974Z,0.5
2018-01-14T00:47:35.197Z,0.5
2018-01-14T00:48:42.125Z,0.5
2018-01-14T00:49:49.310Z,0.4
2018-01-14T00:50:56.500Z,0.4
2018-01-14T00:52:03.692Z,0.4
2018-01-14T00:53:10.881Z,0.4
2018-01-14T00:54:18.075Z,0.4
2018-01-14T00:55:25.266Z,0.5
2018-01-14T00:56:32.457Z,0.5
2018-01-14T00:57:39.654Z,0.5
2018-01-14T00:58:46.843Z,0.5
2018-01-14T00:59:54.038Z,0.5
2018-01-14T01:01:01.238Z,0.5
2018-01-14T01:02:08.427Z,0.5
2018-01-14T01:03:15.617Z,0.4
2018-01-14T01:04:22.808Z,0.4
2018-01-14T01:05:29.991Z,0.5
2018-01-14T01:06:37.179Z,0.4
2018-01-14T01:07:44.369Z,0.4
2018-01-14T01:08:51.559Z,0.4
2018-01-14T01:09:58.750Z,0.4
2018-01-14T01:11:05.943Z,0.4
2018-01-14T01:12:13.132Z,0.4
2018-01-14T01:13:20.325Z,0.4
2018-01-14T01:14:27.513Z,0.4
2018-01-14T01:15:34.704Z,0.4
2018-01-14T01:16:41.893Z,0.4
2018-01-14T01:17:49.079Z,0.4
2018-01-14T01:18:56.270Z,0.4
2018-01-14T01:20:03.185Z,0.5
2018-01-14T01:21:10.381Z,0.4
2018-01-14T01:22:17.566Z,0.4
2018-01-14T01:23:24.758Z,0.4
2018-01-14T01:24:31.670Z,0.4
2018-01-14T01:25:38.860Z,0.4
2018-01-14T01:26:46.052Z,0.4
2018-01-14T01:27:53.245Z,0.5
2018-01-14T01:29:00.435Z,0.5
2018-01-14T01:30:07.628Z,0.4
2018-01-14T01:31:14.815Z,0.5
2018-01-14T01:32:22.008Z,0.5
2018-01-14T01:33:29.191Z,0.4
2018-01-14T01:34:36.387Z,0.4
2018-01-14T01:35:43.573Z,0.5
2018-01-14T01:36:50.765Z,0.4
2018-01-14T01:37:57.703Z,0.4
2018-01-14T01:39:04.877Z,0.4
2018-01-14T01:40:12.068Z,0.4
2018-01-14T01:41:19.264Z,0.5
2018-01-14T01:42:26.453Z,0.5
2018-01-14T01:43:33.639Z,0.5
2018-01-14T01:44:40.831Z,0.4
2018-01-14T01:45:48.019Z,0.5
2018-01-14T01:46:55.204Z,0.5
2018-01-14T01:48:02.392Z,0.5
2018-01-14T01:49:09.578Z,0.5
2018-01-14T01:50:16.772Z,0.5
2018-01-14T01:51:23.959Z,0.4
2018-01-14T01:52:31.157Z,0.5
2018-01-14T01:53:38.355Z,0.5
2018-01-14T01:54:45.553Z,0.5
2018-01-14T01:55:52.490Z,0.5
2018-01-14T01:56:59.665Z,0.5
2018-01-14T01:58:06.584Z,0.5
2018-01-14T01:59:13.489Z,0.5
2018-01-14T02:00:20.679Z,0.5
2018-01-14T02:01:27.868Z,0.5
2018-01-14T02:02:35.053Z,0.5
2018-01-14T02:03:41.963Z,0.5
2018-01-14T02:04:49.149Z,0.5
2018-01-14T02:05:56.339Z,0.5
2018-01-14T02:07:03.528Z,0.5
2018-01-14T02:08:10.715Z,0.5
2018-01-14T02:09:17.900Z,0.5
2018-01-14T02:10:24.816Z,0.5
2018-01-14T02:11:32.005Z,0.5
2018-01-14T02:12:39.193Z,0.5
2018-01-14T02:13:46.422Z,0.5
2018-01-14T02:14:53.614Z,0.5
2018-01-14T02:16:00.528Z,0.5
2018-01-14T02:17:07.161Z,0.5
2018-01-14T02:18:14.348Z,0.5
2018-01-14T02:19:21.537Z,0.5
2018-01-14T02:20:28.725Z,0.5
2018-01-14T02:21:35.915Z,0.5
2018-01-14T02:22:43.103Z,0.5
2018-01-14T02:23:50.012Z,0.5
2018-01-14T02:24:57.201Z,0.5
2018-01-14T02:26:04.395Z,0.5
2018-01-14T02:27:11.583Z,0.5
2018-01-14T02:28:18.781Z,0.5
2018-01-14T02:29:25.977Z,0.5
2018-01-14T02:30:33.165Z,0.5
2018-01-14T02:31:39.813Z,0.5
2018-01-14T02:32:47.002Z,0.5
2018-01-14T02:33:54.191Z,0.5
2018-01-14T02:35:01.383Z,0.5
2018-01-14T02:36:08.582Z,0.5
2018-01-14T02:37:15.768Z,0.5
2018-01-14T02:38:22.963Z,0.5
2018-01-14T02:39:30.157Z,0.5
2018-01-14T02:40:37.344Z,0.5
2018-01-14T02:41:44.532Z,0.5
2018-01-14T02:42:51.719Z,0.6
2018-01-14T02:43:58.909Z,0.5
2018-01-14T02:45:06.117Z,0.5
2018-01-14T02:46:13.307Z,0.6
2018-01-14T02:47:20.496Z,0.6
2018-01-14T02:48:27.683Z,0.6
2018-01-14T02:49:34.872Z,0.6
2018-01-14T02:50:42.065Z,0.6
2018-01-14T02:51:49.256Z,0.6
2018-01-14T02:52:56.443Z,0.6
2018-01-14T02:54:03.636Z,0.6
2018-01-14T02:55:10.820Z,0.6
2018-01-14T02:56:18.009Z,0.6
2018-01-14T02:57:25.197Z,0.6
2018-01-14T02:58:32.390Z,0.6
2018-01-14T02:59:39.579Z,0.6
2018-01-14T03:00:46.768Z,0.6
2018-01-14T03:01:53.950Z,0.6
2018-01-14T03:03:01.139Z,0.6
2018-01-14T03:04:08.332Z,0.6
2018-01-14T03:05:15.522Z,0.6
2018-01-14T03:06:22.728Z,0.6
2018-01-14T03:07:29.922Z,0.6
2018-01-14T03:08:37.188Z,0.6
2018-01-14T03:09:44.400Z,0.6
2018-01-14T03:10:51.602Z,0.6
2018-01-14T03:11:58.784Z,0.6
2018-01-14T03:13:05.978Z,0.6
2018-01-14T03:14:13.170Z,0.6
2018-01-14T03:15:20.357Z,0.6
2018-01-14T03:16:27.282Z,0.6
2018-01-14T03:17:34.469Z,0.6
2018-01-14T03:18:41.662Z,0.6
2018-01-14T03:19:48.850Z,0.6
2018-01-14T03:20:56.037Z,0.6
2018-01-14T03:22:02.959Z,0.6
2018-01-14T03:23:10.150Z,0.6
2018-01-14T03:24:17.346Z,0.6
2018-01-14T03:25:24.535Z,0.6
2018-01-14T03:26:31.730Z,0.6
2018-01-14T03:27:38.917Z,0.6
2018-01-14T03:28:46.118Z,0.6
2018-01-14T03:29:53.555Z,0.6
2018-01-14T03:31:00.193Z,0.6
2018-01-14T03:32:07.385Z,0.6
2018-01-14T03:33:14.289Z,0.6
2018-01-14T03:34:21.476Z,0.6
2018-01-14T03:35:28.915Z,0.6
2018-01-14T03:36:36.107Z,0.6
2018-01-14T03:37:43.296Z,0.6
2018-01-14T03:38:50.483Z,0.6
2018-01-14T03:39:57.672Z,0.6
2018-01-14T03:41:04.859Z,0.6
2018-01-14T03:42:12.049Z,0.6
2018-01-14T03:43:19.242Z,0.6
2018-01-14T03:44:26.429Z,0.6
2018-01-14T03:45:33.622Z,0.6
2018-01-14T03:46:40.813Z,0.6
2018-01-14T03:47:47.998Z,0.6
2018-01-14T03:48:55.186Z,0.6
2018-01-14T03:50:02.380Z,0.6
2018-01-14T03:51:09.563Z,0.6
2018-01-14T03:52:16.758Z,0.6
2018-01-14T03:53:23.670Z,0.6
2018-01-14T03:54:30.862Z,0.6
2018-01-14T03:55:38.048Z,0.6
2018-01-14T03:56:45.238Z,0.6
2018-01-14T03:57:52.426Z,0.6
2018-01-14T03:58:59.632Z,0.6
2018-01-14T04:00:06.542Z,0.6
2018-01-14T04:01:13.455Z,0.6
2018-01-14T04:02:20.649Z,0.6
2018-01-14T04:03:27.837Z,0.6
2018-01-14T04:04:35.022Z,0.6
2018-01-14T04:05:41.932Z,0.6
2018-01-14T04:06:49.118Z,0.6
2018-01-14T04:07:56.306Z,0.6
2018-01-14T04:09:03.497Z,0.6
2018-01-14T04:10:10.406Z,0.6
2018-01-14T04:11:17.597Z,0.6
2018-01-14T04:12:24.788Z,0.6
2018-01-14T04:13:31.978Z,0.6
2018-01-14T04:14:39.171Z,0.6
2018-01-14T04:15:46.360Z,0.6
2018-01-14T04:16:53.548Z,0.6
2018-01-14T04:18:00.459Z,0.6
2018-01-14T04:19:07.855Z,0.6
2018-01-14T04:20:15.044Z,0.6
2018-01-14T04:21:21.958Z,0.6
2018-01-14T04:22:29.143Z,0.6
2018-01-14T04:23:36.058Z,0.6
2018-01-14T04:24:43.267Z,0.6
2018-01-14T04:25:50.459Z,0.6
2018-01-14T04:26:57.646Z,0.6
2018-01-14T04:28:04.840Z,0.6
2018-01-14T04:29:12.032Z,0.6
2018-01-14T04:30:19.235Z,0.6
2018-01-14T04:31:26.419Z,0.6
2018-01-14T04:32:33.608Z,0.6
2018-01-14T04:33:40.796Z,0.6
2018-01-14T04:34:47.708Z,0.6
2018-01-14T04:35:54.901Z,0.5
2018-01-14T04:37:01.816Z,0.6
2018-01-14T04:38:09.001Z,0.6
2018-01-14T04:39:16.192Z,0.6
2018-01-14T04:40:23.380Z,0.6
2018-01-14T04:41:30.576Z,0.5
2018-01-14T04:42:37.765Z,0.5
2018-01-14T04:43:44.681Z,0.5
2018-01-14T04:44:51.869Z,0.5
2018-01-14T04:45:59.307Z,0.5
2018-01-14T04:47:06.507Z,0.5
2018-01-14T04:48:13.692Z,0.5
2018-01-14T04:49:20.879Z,0.5
2018-01-14T04:50:27.789Z,0.5
2018-01-14T04:51:34.948Z,0.5
2018-01-14T04:52:42.136Z,0.5
2018-01-14T04:53:49.320Z,0.5
2018-01-14T04:54:56.508Z,0.5
2018-01-14T04:56:03.695Z,0.5
2018-01-14T04:57:10.855Z,0.5
2018-01-14T04:58:18.043Z,0.5
2018-01-14T04:59:25.235Z,0.5
2018-01-14T05:00:32.428Z,0.5
2018-01-14T05:01:39.615Z,0.5
2018-01-14T05:02:46.804Z,0.5
2018-01-14T05:03:54.000Z,0.5
2018-01-14T05:05:01.188Z,0.5
2018-01-14T05:06:08.095Z,0.4
2018-01-14T05:07:15.286Z,0.4
2018-01-14T05:08:22.473Z,0.5
2018-01-14T05:09:29.389Z,0.4
2018-01-14T05:10:36.581Z,0.5
2018-01-14T05:11:43.769Z,0.4
2018-01-14T05:12:50.416Z,0.4
2018-01-14T05:13:57.608Z,0.4
2018-01-14T05:15:04.802Z,0.4
2018-01-14T05:16:12.020Z,0.4
2018-01-14T05:17:19.218Z,0.4
2018-01-14T05:18:26.409Z,0.4
2018-01-14T05:19:33.597Z,0.4
2018-01-14T05:20:40.787Z,0.4
2018-01-14T05:21:47.976Z,0.4
2018-01-14T05:22:55.167Z,0.4
2018-01-14T05:24:02.079Z,0.4
2018-01-14T05:25:09.264Z,0.4
2018-01-14T05:26:16.178Z,0.4
2018-01-14T05:27:23.365Z,0.4
2018-01-14T05:28:30.560Z,0.4
2018-01-14T05:29:37.193Z,0.4
2018-01-14T05:30:44.105Z,0.4
2018-01-14T05:31:51.298Z,0.4
2018-01-14T05:32:58.213Z,0.4
2018-01-14T05:34:05.125Z,0.4
2018-01-14T05:35:12.316Z,0.3
2018-01-14T05:36:19.504Z,0.4
2018-01-14T05:37:26.695Z,0.4
2018-01-14T05:38:33.888Z,0.4
2018-01-14T05:39:41.081Z,0.4
2018-01-14T05:40:48.268Z,0.4
2018-01-14T05:41:55.253Z,0.4
2018-01-14T05:43:02.442Z,0.4
2018-01-14T05:44:09.632Z,0.4
2018-01-14T05:45:16.869Z,0.4
2018-01-14T05:46:24.064Z,0.4
2018-01-14T05:47:31.248Z,0.4
2018-01-14T05:48:38.435Z,0.4
2018-01-14T05:49:45.626Z,0.4
2018-01-14T05:50:52.812Z,0.4
2018-01-14T05:52:00.006Z,0.5
2018-01-14T05:53:07.191Z,0.5
2018-01-14T05:54:14.385Z,0.5
2018-01-14T05:55:21.572Z,0.4
2018-01-14T05:56:28.763Z,0.4
2018-01-14T05:57:35.953Z,0.4
2018-01-14T05:58:43.140Z,0.4
2018-01-14T05:59:50.329Z,0.4
2018-01-14T06:00:57.519Z,0.4
2018-01-14T06:02:04.710Z,0.4
2018-01-14T06:03:11.902Z,0.4
2018-01-14T06:04:19.085Z,0.4
2018-01-14T06:05:26.276Z,0.4
2018-01-14T06:06:33.192Z,0.4
2018-01-14T06:07:40.378Z,0.4
2018-01-14T06:08:47.570Z,0.4
2018-01-14T06:09:54.736Z,0.4
2018-01-14T06:11:01.653Z,0.4
2018-01-14T06:12:08.840Z,0.4
2018-01-14T06:13:16.027Z,0.5
2018-01-14T06:14:22.936Z,0.4
2018-01-14T06:15:30.160Z,0.4
2018-01-14T06:16:37.350Z,0.4
2018-01-14T06:17:44.540Z,0.5
2018-01-14T06:18:51.725Z,0.5
2018-01-14T06:19:58.917Z,0.5
2018-01-14T06:21:06.112Z,0.5
2018-01-14T06:22:13.302Z,0.5
2018-01-14T06:23:20.492Z,0.5
2018-01-14T06:24:27.400Z,0.5
2018-01-14T06:25:34.587Z,0.5
2018-01-14T06:26:41.777Z,0.5
2018-01-14T06:27:48.697Z,0.5
2018-01-14T06:28:55.880Z,0.5
2018-01-14T06:30:03.146Z,0.5
2018-01-14T06:31:10.332Z,0.5
2018-01-14T06:32:17.527Z,0.5
2018-01-14T06:33:24.715Z,0.5
2018-01-14T06:34:31.902Z,0.5
2018-01-14T06:35:39.090Z,0.5
2018-01-14T06:36:46.028Z,0.5
2018-01-14T06:37:53.220Z,0.5
2018-01-14T06:39:00.407Z,0.5
2018-01-14T06:40:07.050Z,0.5
2018-01-14T06:41:14.235Z,0.5
2018-01-14T06:42:21.420Z,0.5
2018-01-14T06:43:28.607Z,0.5
2018-01-14T06:44:35.796Z,0.5
2018-01-14T06:45:42.739Z,0.5
2018-01-14T06:46:49.927Z,0.5
2018-01-14T06:47:57.112Z,0.5
2018-01-14T06:49:04.304Z,0.5
2018-01-14T06:50:11.492Z,0.5
2018-01-14T06:51:18.683Z,0.5
2018-01-14T06:52:25.594Z,0.5
2018-01-14T06:53:32.782Z,0.5
2018-01-14T06:54:39.690Z,0.5
2018-01-14T06:55:46.879Z,0.5
2018-01-14T06:56:54.068Z,0.5
2018-01-14T06:58:01.256Z,0.6
2018-01-14T06:59:08.447Z,0.6
2018-01-14T07:00:15.639Z,0.5
2018-01-14T07:01:22.828Z,0.5
2018-01-14T07:02:30.018Z,0.6
2018-01-14T07:03:37.205Z,0.6
2018-01-14T07:04:44.415Z,0.6
2018-01-14T07:05:51.811Z,0.6
2018-01-14T07:06:59.002Z,0.6
2018-01-14T07:08:05.919Z,0.5
2018-01-14T07:09:13.124Z,0.5
2018-01-14T07:10:20.317Z,0.6
2018-01-14T07:11:27.505Z,0.6
2018-01-14T07:12:34.420Z,0.6
2018-01-14T07:13:41.613Z,0.6
2018-01-14T07:14:48.801Z,0.6
2018-01-14T07:15:55.989Z,0.6
2018-01-14T07:17:02.907Z,0.6
2018-01-14T07:18:10.099Z,0.6
2018-01-14T07:19:17.292Z,0.6
2018-01-14T07:20:24.480Z,0.6
2018-01-14T07:21:31.668Z,0.6
2018-01-14T07:22:38.857Z,0.6
2018-01-14T07:23:46.091Z,0.6
2018-01-14T07:24:53.278Z,0.6
2018-01-14T07:26:00.477Z,0.6
2018-01-14T07:27:07.956Z,0.6
2018-01-14T07:28:15.147Z,0.7
2018-01-14T07:29:22.056Z,0.7
2018-01-14T07:30:29.249Z,0.7
2018-01-14T07:31:36.433Z,0.7
2018-01-14T07:32:43.349Z,0.7
2018-01-14T07:33:50.532Z,0.7
2018-01-14T07:34:57.722Z,0.8
2018-01-14T07:36:04.916Z,0.8
2018-01-14T07:37:12.101Z,0.9
2018-01-14T07:38:19.298Z,0.9
2018-01-14T07:39:26.488Z,0.9
2018-01-14T07:40:33.685Z,0.9
2018-01-14T07:41:40.884Z,0.9
2018-01-14T07:42:48.075Z,0.9
2018-01-14T07:43:55.100Z,0.9
2018-01-14T07:45:02.293Z,0.9
2018-01-14T07:46:09.485Z,0.9
2018-01-14T07:47:16.673Z,1
2018-01-14T07:48:23.866Z,1
2018-01-14T07:49:31.102Z,1
2018-01-14T07:50:38.017Z,1
2018-01-14T07:51:45.206Z,1
2018-01-14T07:52:51.838Z,1
2018-01-14T07:53:59.026Z,1
2018-01-14T07:55:06.221Z,1
2018-01-14T07:56:13.403Z,1
2018-01-14T07:57:20.596Z,0.9
2018-01-14T07:58:27.787Z,1
2018-01-14T07:59:35.073Z,1
2018-01-14T08:00:42.261Z,1
2018-01-14T08:01:49.459Z,1
2018-01-14T08:02:56.380Z,1
2018-01-14T08:04:03.302Z,1
2018-01-14T08:05:10.494Z,1.1
2018-01-14T08:06:17.684Z,1
2018-01-14T08:07:24.871Z,1
2018-01-14T08:08:32.062Z,1.1
2018-01-14T08:09:39.251Z,1.1
2018-01-14T08:10:46.171Z,1.1
2018-01-14T08:11:52.807Z,1.1
2018-01-14T08:12:59.994Z,1.1
2018-01-14T08:14:07.189Z,1.1
2018-01-14T08:15:14.380Z,1.2
2018-01-14T08:16:21.582Z,1.2
2018-01-14T08:17:28.761Z,1.2
2018-01-14T08:18:35.951Z,1.2
2018-01-14T08:19:43.141Z,1.2
2018-01-14T08:20:50.073Z,1.2
2018-01-14T08:21:57.273Z,1.3
2018-01-14T08:23:04.460Z,1.2
2018-01-14T08:24:11.394Z,1.3
2018-01-14T08:25:18.583Z,1.3
2018-01-14T08:26:25.779Z,1.3
2018-01-14T08:27:32.967Z,1.3
2018-01-14T08:28:40.152Z,1.3
2018-01-14T08:29:47.341Z,1.3
2018-01-14T08:30:54.527Z,1.3
2018-01-14T08:32:01.717Z,1.4
2018-01-14T08:33:08.630Z,1.4
2018-01-14T08:34:15.885Z,1.4
2018-01-14T08:35:22.802Z,1.4
2018-01-14T08:36:29.994Z,1.4
2018-01-14T08:37:37.182Z,1.4
2018-01-14T08:38:44.372Z,1.4
2018-01-14T08:39:51.563Z,1.4
2018-01-14T08:40:58.753Z,1.4
2018-01-14T08:42:06.005Z,1.5
2018-01-14T08:43:13.194Z,1.5
2018-01-14T08:44:20.384Z,1.5
2018-01-14T08:45:27.569Z,1.5
2018-01-14T08:46:34.754Z,1.5
2018-01-14T08:47:41.670Z,1.5
2018-01-14T08:48:48.866Z,1.5
2018-01-14T08:49:56.054Z,1.5
2018-01-14T08:51:03.245Z,1.5
2018-01-14T08:52:10.432Z,1.6
2018-01-14T08:53:17.620Z,1.6
2018-01-14T08:54:24.820Z,1.6
2018-01-14T08:55:32.043Z,1.6
2018-01-14T08:56:38.951Z,1.6
2018-01-14T08:57:46.153Z,1.6
2018-01-14T08:58:53.069Z,1.6
2018-01-14T09:00:00.258Z,1.6
2018-01-14T09:01:07.451Z,1.6
2018-01-14T09:02:14.645Z,1.7
2018-01-14T09:03:21.560Z,1.7
2018-01-14T09:04:28.753Z,1.7
2018-01-14T09:05:35.952Z,1.7
2018-01-14T09:06:43.140Z,1.8
2018-01-14T09:07:50.333Z,1.7
2018-01-14T09:08:57.523Z,1.8
2018-01-14T09:10:04.712Z,1.8
2018-01-14T09:11:11.905Z,1.8
2018-01-14T09:12:19.350Z,1.8
2018-01-14T09:13:26.539Z,1.8
2018-01-14T09:14:33.729Z,1.9
2018-01-14T09:15:40.923Z,1.9
2018-01-14T09:16:47.836Z,1.9
2018-01-14T09:17:54.754Z,1.9
2018-01-14T09:19:01.944Z,2
2018-01-14T09:20:09.154Z,2
2018-01-14T09:21:16.341Z,2
2018-01-14T09:22:23.531Z,2
2018-01-14T09:23:30.167Z,2
2018-01-14T09:24:37.364Z,2.1
2018-01-14T09:25:44.058Z,2.2
2018-01-14T09:26:51.256Z,2.2
2018-01-14T09:27:58.171Z,2.2
2018-01-14T09:29:05.355Z,2.3
2018-01-14T09:30:12.275Z,2.3
2018-01-14T09:31:19.466Z,2.3
2018-01-14T09:32:26.665Z,2.4
2018-01-14T09:33:33.857Z,2.5
2018-01-14T09:34:41.094Z,2.5
2018-01-14T09:35:48.287Z,2.5
2018-01-14T09:36:55.240Z,2.5
2018-01-14T09:38:02.431Z,2.6
2018-01-14T09:39:09.626Z,2.7
2018-01-14T09:40:16.815Z,2.7
2018-01-14T09:41:24.014Z,2.8
2018-01-14T09:42:31.207Z,2.9
2018-01-14T09:43:38.123Z,3.1
2018-01-14T09:44:45.315Z,3.1
2018-01-14T09:45:52.522Z,3.2
2018-01-14T09:46:59.712Z,3.2
2018-01-14T09:48:06.910Z,3.3
2018-01-14T09:49:14.116Z,3.4
2018-01-14T09:50:21.305Z,3.1
2018-01-14T09:51:28.495Z,3
2018-01-14T09:52:35.412Z,3
2018-01-14T09:53:42.601Z,2.9
2018-01-14T09:54:49.519Z,2.9
2018-01-14T09:55:56.709Z,2.9
2018-01-14T09:57:03.633Z,2.9
2018-01-14T09:58:10.832Z,2.8
2018-01-14T09:59:18.024Z,2.8
2018-01-14T10:00:25.215Z,2.7
2018-01-14T10:01:32.130Z,2.7
2018-01-14T10:02:39.318Z,2.7
2018-01-14T10:03:46.508Z,2.7
2018-01-14T10:04:53.707Z,2.6
2018-01-14T10:06:00.900Z,2.6
2018-01-14T10:07:08.094Z,2.6
2018-01-14T10:08:15.285Z,2.6
2018-01-14T10:09:22.548Z,2.6
2018-01-14T10:10:29.769Z,2.7
2018-01-14T10:11:36.697Z,2.7
2018-01-14T10:12:43.899Z,2.7
2018-01-14T10:13:50.819Z,2.8
2018-01-14T10:14:58.017Z,2.9
2018-01-14T10:16:05.211Z,3.2
2018-01-14T10:17:11.849Z,3.4
2018-01-14T10:18:19.041Z,3.4
2018-01-14T10:19:26.281Z,3.4
2018-01-14T10:20:33.497Z,3.5
2018-01-14T10:21:40.694Z,3.5
2018-01-14T10:22:47.884Z,3.5
2018-01-14T10:23:54.807Z,3.6
2018-01-14T10:25:02.007Z,3.6
2018-01-14T10:26:09.197Z,3.6
2018-01-14T10:27:16.389Z,3.8
2018-01-14T10:28:23.583Z,3.6
2018-01-14T10:29:30.773Z,3.7
2018-01-14T10:30:37.976Z,3.9
2018-01-14T10:31:45.168Z,3.9
2018-01-14T10:32:52.361Z,3.8
2018-01-14T10:33:59.551Z,3.8
2018-01-14T10:35:06.739Z,3.8
2018-01-14T10:36:13.935Z,3.8
2018-01-14T10:37:21.130Z,3.8
2018-01-14T10:38:28.322Z,3.8
2018-01-14T10:39:35.510Z,3.8
2018-01-14T10:40:42.701Z,3.8
2018-01-14T10:41:49.891Z,3.7
2018-01-14T10:42:57.083Z,3.7
2018-01-14T10:44:04.278Z,3.7
2018-01-14T10:45:11.498Z,3.6
2018-01-14T10:46:18.686Z,3.4
2018-01-14T10:47:25.699Z,3.4
2018-01-14T10:48:32.889Z,3.4
2018-01-14T10:49:39.809Z,3.4
2018-01-14T10:50:46.726Z,3.4
2018-01-14T10:51:53.916Z,3.4
2018-01-14T10:53:01.108Z,3.4
2018-01-14T10:54:08.299Z,3.5
2018-01-14T10:55:15.492Z,3.6
2018-01-14T10:56:22.687Z,3.6
2018-01-14T10:57:29.900Z,3.7
2018-01-14T10:58:37.093Z,3.9
2018-01-14T10:59:44.288Z,4.1
2018-01-14T11:00:51.207Z,4.3
2018-01-14T11:01:58.403Z,4.2
2018-01-14T11:03:05.604Z,4.2
2018-01-14T11:04:12.788Z,4.2
2018-01-14T11:05:19.980Z,4.3
2018-01-14T11:06:27.174Z,4.3
2018-01-14T11:07:34.618Z,4.3
2018-01-14T11:08:42.021Z,4.3
2018-01-14T11:09:48.939Z,4.3
2018-01-14T11:10:56.132Z,4.3
2018-01-14T11:12:03.049Z,4.5
2018-01-14T11:13:10.272Z,4.6
2018-01-14T11:14:17.203Z,4.7
2018-01-14T11:15:24.397Z,4.6
2018-01-14T11:16:31.589Z,4.7
2018-01-14T11:17:38.780Z,4.6
2018-01-14T11:18:45.974Z,4.7
2018-01-14T11:19:53.165Z,4.6
2018-01-14T11:21:00.359Z,4.4
2018-01-14T11:22:07.549Z,4.5
2018-01-14T11:23:14.758Z,4.7
2018-01-14T11:24:21.980Z,4.7
2018-01-14T11:25:29.174Z,4.7
2018-01-14T11:26:35.804Z,4.8
2018-01-14T11:27:42.997Z,4.8
2018-01-14T11:28:50.291Z,4.9
2018-01-14T11:29:57.491Z,5
2018-01-14T11:31:04.687Z,4.9
2018-01-14T11:32:11.881Z,4.9
2018-01-14T11:33:19.069Z,4.9
2018-01-14T11:34:26.266Z,4.8
2018-01-14T11:35:33.453Z,4.9
2018-01-14T11:36:40.369Z,4.9
2018-01-14T11:37:47.558Z,5
2018-01-14T11:38:54.746Z,5
2018-01-14T11:40:01.669Z,4.9
2018-01-14T11:41:08.855Z,4.9
2018-01-14T11:42:15.773Z,5
2018-01-14T11:43:22.968Z,5.1
2018-01-14T11:44:30.172Z,5.1
2018-01-14T11:45:37.358Z,5.3
2018-01-14T11:46:44.277Z,5.3
2018-01-14T11:47:51.190Z,5.3
2018-01-14T11:48:58.383Z,5.3
2018-01-14T11:50:05.573Z,5.3
2018-01-14T11:51:12.765Z,5.3
2018-01-14T11:52:19.959Z,5.5
2018-01-14T11:53:27.150Z,5.7
2018-01-14T11:54:34.064Z,5.8
2018-01-14T11:55:41.268Z,5.6
2018-01-14T11:56:48.566Z,5.5
2018-01-14T11:57:55.759Z,5.5
2018-01-14T11:59:02.952Z,5.6
2018-01-14T12:00:10.145Z,5.7
2018-01-14T12:01:17.340Z,5.5
2018-01-14T12:02:24.527Z,5.4
2018-01-14T12:03:31.723Z,5.6
2018-01-14T12:04:38.916Z,5.6
2018-01-14T12:05:45.835Z,5.6
2018-01-14T12:06:53.024Z,5.6
2018-01-14T12:07:59.707Z,5.7
2018-01-14T12:09:06.913Z,5.9
2018-01-14T12:10:14.105Z,6
2018-01-14T12:11:21.297Z,6.1
2018-01-14T12:12:28.498Z,5.9
2018-01-14T12:13:35.687Z,5.6
2018-01-14T12:14:42.873Z,5.5
2018-01-14T12:15:50.068Z,5.5
2018-01-14T12:16:57.264Z,5.6
2018-01-14T12:18:04.563Z,5.6
2018-01-14T12:19:11.769Z,5.6
2018-01-14T12:20:18.947Z,5.6
2018-01-14T12:21:26.141Z,5.6
2018-01-14T12:22:33.338Z,5.6
2018-01-14T12:23:40.253Z,5.5
2018-01-14T12:24:47.444Z,5.4
2018-01-14T12:25:54.639Z,5.3
2018-01-14T12:27:01.838Z,5.4
2018-01-14T12:28:09.037Z,5.4
2018-01-14T12:29:15.948Z,5.4
2018-01-14T12:30:23.345Z,5.5
2018-01-14T12:31:30.267Z,5.3
2018-01-14T12:32:37.456Z,5.1
2018-01-14T12:33:44.652Z,5.3
2018-01-14T12:34:51.845Z,5.5
2018-01-14T12:35:59.042Z,5.6
2018-01-14T12:37:06.230Z,5.7
2018-01-14T12:38:13.424Z,5.7
2018-01-14T12:39:20.618Z,5.7
2018-01-14T12:40:27.810Z,5.6
2018-01-14T12:41:34.735Z,5.4
2018-01-14T12:42:41.994Z,5.4
2018-01-14T12:43:49.214Z,5.2
2018-01-14T12:44:56.408Z,5.3
2018-01-14T12:46:03.603Z,5.3
2018-01-14T12:47:10.800Z,5.2
2018-01-14T12:48:18.010Z,5.4
2018-01-14T12:49:25.195Z,5.6
2018-01-14T12:50:32.117Z,5.8
2018-01-14T12:51:39.031Z,5.9
2018-01-14T12:52:46.228Z,5.9
2018-01-14T12:53:53.423Z,5.8
2018-01-14T12:55:00.617Z,5.9
2018-01-14T12:56:07.812Z,5.4
2018-01-14T12:57:15.008Z,5.4
2018-01-14T12:58:22.206Z,5.6
2018-01-14T12:59:29.137Z,5.5
2018-01-14T13:00:36.351Z,5.4
2018-01-14T13:01:43.541Z,5.6
2018-01-14T13:02:50.746Z,5.9
2018-01-14T13:03:57.941Z,6
2018-01-14T13:05:05.135Z,6.1
2018-01-14T13:06:12.052Z,6
2018-01-14T13:07:19.246Z,6.1
2018-01-14T13:08:26.439Z,6.3
2018-01-14T13:09:33.636Z,6.1
2018-01-14T13:10:40.836Z,5.9
2018-01-14T13:11:48.033Z,5.9
2018-01-14T13:12:54.948Z,5.8
2018-01-14T13:14:01.868Z,5.5
2018-01-14T13:15:08.517Z,5.4
2018-01-14T13:16:15.711Z,5.4
2018-01-14T13:17:22.626Z,5.5
2018-01-14T13:18:29.818Z,5.7
2018-01-14T13:19:37.011Z,5.6
2018-01-14T13:20:44.202Z,5.6
2018-01-14T13:21:51.121Z,5.6
2018-01-14T13:22:58.312Z,5.7
2018-01-14T13:24:05.589Z,5.6
2018-01-14T13:25:12.538Z,5.6
2018-01-14T13:26:19.773Z,5.5
2018-01-14T13:27:27.042Z,5.3
2018-01-14T13:28:34.226Z,5.5
2018-01-14T13:29:41.433Z,5.6
2018-01-14T13:30:48.624Z,5.5
2018-01-14T13:31:55.819Z,5.4
2018-01-14T13:33:02.737Z,5.4
2018-01-14T13:34:09.378Z,5.2
2018-01-14T13:35:16.571Z,5.1
2018-01-14T13:36:23.764Z,5.2
2018-01-14T13:37:30.678Z,5.2
2018-01-14T13:38:37.879Z,5.2
2018-01-14T13:39:45.083Z,5.3
2018-01-14T13:40:52.278Z,5.4
2018-01-14T13:41:59.473Z,5.5
2018-01-14T13:43:06.667Z,5.3
2018-01-14T13:44:13.597Z,5.3
2018-01-14T13:45:20.522Z,5.1
2018-01-14T13:46:27.442Z,5.1
2018-01-14T13:47:34.637Z,4.9
2018-01-14T13:48:41.832Z,4.8
2018-01-14T13:49:49.029Z,4.7
2018-01-14T13:50:56.220Z,4.4
2018-01-14T13:52:03.413Z,4.3
2018-01-14T13:53:10.048Z,4.3
2018-01-14T13:54:17.244Z,4.2
2018-01-14T13:55:24.436Z,4.3
2018-01-14T13:56:31.636Z,4.4
2018-01-14T13:57:38.557Z,4.5
2018-01-14T13:58:45.473Z,4.5
2018-01-14T13:59:52.671Z,4.6
2018-01-14T14:00:59.866Z,4.6
2018-01-14T14:02:07.058Z,4.5
2018-01-14T14:03:14.252Z,4.6
2018-01-14T14:04:21.171Z,4.7
2018-01-14T14:05:28.368Z,4.6
2018-01-14T14:06:35.288Z,4.7
2018-01-14T14:07:42.482Z,4.8
2018-01-14T14:08:49.698Z,4.9
2018-01-14T14:09:56.892Z,5
2018-01-14T14:11:04.084Z,5.1
2018-01-14T14:12:11.282Z,4.8
2018-01-14T14:13:18.473Z,4.7
2018-01-14T14:14:25.396Z,4.6
2018-01-14T14:15:32.585Z,4.5
2018-01-14T14:16:39.778Z,4.4
2018-01-14T14:17:46.975Z,4.3
2018-01-14T14:18:54.168Z,4.3
2018-01-14T14:20:01.366Z,4.2
2018-01-14T14:21:08.563Z,4.1
2018-01-14T14:22:15.760Z,4
2018-01-14T14:23:22.950Z,3.9
2018-01-14T14:24:30.144Z,3.8
2018-01-14T14:25:37.339Z,3.8
2018-01-14T14:26:44.258Z,3.7
2018-01-14T14:27:51.449Z,3.7
2018-01-14T14:28:58.704Z,3.7
2018-01-14T14:30:05.955Z,3.6
2018-01-14T14:31:12.887Z,3.6
2018-01-14T14:32:19.811Z,3.6
2018-01-14T14:33:27.002Z,3.6
2018-01-14T14:34:34.195Z,3.5
2018-01-14T14:35:41.391Z,3.6
2018-01-14T14:36:48.582Z,3.5
2018-01-14T14:37:55.777Z,3.6
2018-01-14T14:39:02.973Z,3.6
2018-01-14T14:40:09.892Z,3.5
2018-01-14T14:41:17.083Z,3.5
2018-01-14T14:42:24.276Z,3.5
2018-01-14T14:43:31.468Z,3.5
2018-01-14T14:44:38.392Z,3.5
2018-01-14T14:45:45.310Z,3.5
2018-01-14T14:46:52.515Z,3.5
2018-01-14T14:47:59.708Z,3.4
2018-01-14T14:49:06.935Z,3.5
2018-01-14T14:50:13.887Z,3.5
2018-01-14T14:51:20.521Z,3.5
2018-01-14T14:52:27.441Z,3.6
2018-01-14T14:53:34.362Z,3.5
2018-01-14T14:54:41.560Z,3.5
2018-01-14T14:55:48.786Z,3.4
2018-01-14T14:56:55.975Z,3.4
2018-01-14T14:58:03.169Z,3.4
2018-01-14T14:59:10.360Z,3.4
2018-01-14T15:00:17.282Z,3.4
2018-01-14T15:01:24.475Z,3.4
2018-01-14T15:02:31.674Z,3.4
2018-01-14T15:03:38.867Z,3.4
2018-01-14T15:04:46.072Z,3.3
2018-01-14T15:05:53.272Z,3.2
2018-01-14T15:07:00.475Z,3.2
2018-01-14T15:08:07.676Z,3.2
2018-01-14T15:09:14.876Z,3.2
2018-01-14T15:10:21.802Z,3.2
2018-01-14T15:11:28.730Z,3.2
2018-01-14T15:12:35.925Z,3.2
2018-01-14T15:13:43.174Z,3.2
2018-01-14T15:14:50.369Z,3.2
2018-01-14T15:15:57.594Z,3.1
2018-01-14T15:17:04.783Z,3.1
2018-01-14T15:18:11.974Z,3.1
2018-01-14T15:19:19.167Z,3.1
2018-01-14T15:20:26.367Z,3
2018-01-14T15:21:33.561Z,3
2018-01-14T15:22:40.752Z,3
2018-01-14T15:23:47.676Z,3
2018-01-14T15:24:54.865Z,3
2018-01-14T15:26:02.056Z,3
2018-01-14T15:27:09.247Z,3